sensor_id;sensor_type;location;lat;lon;timestamp;P1;durP1;ratioP1;P2;durP2;ratioP2
2848;SDS011;59355;52.416;13.412;2023-08-31T00:02:14;6.03;;;5.33;;
2848;SDS011;59355;52.416;13.412;2023-08-31T00:04:39;5.63;;;5.23;;
2848;SDS011;59355;52.416;13.412;2023-08-31T00:07:04;6.70;;;5.80;;
2848;SDS011;59355;52.416;13.412;2023-08-31T00:09:30;6.10;;;5.60;;
2848;SDS011;59355;52.416;13.412;2023-08-31T00:11:55;5.93;;;5.43;;
2848;SDS011;59355;52.416;13.412;2023-08-31T00:14:24;6.90;;;6.30;;
2848;SDS011;59355;52.416;13.412;2023-08-31T00:16:50;6.07;;;5.57;;
2848;SDS011;59355;52.416;13.412;2023-08-31T00:19:16;7.00;;;5.90;;
2848;SDS011;59355;52.416;13.412;2023-08-31T00:21:41;6.57;;;5.97;;
2848;SDS011;59355;52.416;13.412;2023-08-31T00:24:07;6.90;;;6.30;;
2848;SDS011;59355;52.416;13.412;2023-08-31T00:26:33;6.50;;;5.90;;
2848;SDS011;59355;52.416;13.412;2023-08-31T00:28:58;6.60;;;6.03;;
2848;SDS011;59355;52.416;13.412;2023-08-31T00:31:23;7.10;;;5.77;;
2848;SDS011;59355;52.416;13.412;2023-08-31T00:33:49;6.67;;;6.07;;
2848;SDS011;59355;52.416;13.412;2023-08-31T00:36:14;5.90;;;5.40;;
2848;SDS011;59355;52.416;13.412;2023-08-31T00:38:40;6.70;;;6.10;;
2848;SDS011;59355;52.416;13.412;2023-08-31T00:41:05;5.87;;;5.37;;
2848;SDS011;59355;52.416;13.412;2023-08-31T00:43:30;6.03;;;5.53;;
2848;SDS011;59355;52.416;13.412;2023-08-31T00:45:56;6.40;;;5.80;;
2848;SDS011;59355;52.416;13.412;2023-08-31T00:48:23;7.93;;;6.30;;
2848;SDS011;59355;52.416;13.412;2023-08-31T00:50:49;6.67;;;6.10;;
2848;SDS011;59355;52.416;13.412;2023-08-31T00:53:16;7.20;;;6.20;;
2848;SDS011;59355;52.416;13.412;2023-08-31T00:55:42;6.93;;;5.97;;
2848;SDS011;59355;52.416;13.412;2023-08-31T00:58:09;6.20;;;5.70;;
2848;SDS011;59355;52.416;13.412;2023-08-31T01:03:58;6.77;;;6.17;;
2848;SDS011;59355;52.416;13.412;2023-08-31T01:06:50;6.10;;;5.60;;
2848;SDS011;59355;52.416;13.412;2023-08-31T01:12:29;6.60;;;5.43;;
2848;SDS011;59355;52.416;13.412;2023-08-31T01:15:00;6.33;;;5.30;;
2848;SDS011;59355;52.416;13.412;2023-08-31T01:17:29;5.33;;;4.93;;
2848;SDS011;59355;52.416;13.412;2023-08-31T01:19:57;6.70;;;5.33;;
2848;SDS011;59355;52.416;13.412;2023-08-31T01:22:29;5.00;;;4.60;;
2848;SDS011;59355;52.416;13.412;2023-08-31T01:24:57;6.40;;;5.10;;
2848;SDS011;59355;52.416;13.412;2023-08-31T01:27:23;4.40;;;4.00;;
2848;SDS011;59355;52.416;13.412;2023-08-31T01:29:48;4.83;;;4.43;;
2848;SDS011;59355;52.416;13.412;2023-08-31T01:32:14;4.93;;;4.53;;
2848;SDS011;59355;52.416;13.412;2023-08-31T01:34:40;4.80;;;4.40;;
2848;SDS011;59355;52.416;13.412;2023-08-31T01:37:08;5.03;;;4.53;;
2848;SDS011;59355;52.416;13.412;2023-08-31T01:39:49;4.70;;;4.20;;
2848;SDS011;59355;52.416;13.412;2023-08-31T01:42:17;5.57;;;3.93;;
2848;SDS011;59355;52.416;13.412;2023-08-31T01:44:43;4.90;;;4.50;;
2848;SDS011;59355;52.416;13.412;2023-08-31T01:47:10;4.73;;;4.33;;
2848;SDS011;59355;52.416;13.412;2023-08-31T01:49:39;4.70;;;4.30;;
2848;SDS011;59355;52.416;13.412;2023-08-31T01:52:04;5.60;;;5.10;;
2848;SDS011;59355;52.416;13.412;2023-08-31T01:54:30;5.23;;;4.83;;
2848;SDS011;59355;52.416;13.412;2023-08-31T01:56:56;6.10;;;5.50;;
2848;SDS011;59355;52.416;13.412;2023-08-31T01:59:21;5.50;;;5.10;;
2848;SDS011;59355;52.416;13.412;2023-08-31T02:01:47;5.47;;;4.97;;
2848;SDS011;59355;52.416;13.412;2023-08-31T02:04:12;5.77;;;5.27;;
2848;SDS011;59355;52.416;13.412;2023-08-31T02:06:37;5.60;;;5.13;;
2848;SDS011;59355;52.416;13.412;2023-08-31T02:09:03;5.37;;;4.90;;
2848;SDS011;59355;52.416;13.412;2023-08-31T02:11:28;5.67;;;5.17;;
2848;SDS011;59355;52.416;13.412;2023-08-31T02:13:53;5.20;;;4.70;;
2848;SDS011;59355;52.416;13.412;2023-08-31T02:16:19;5.20;;;4.73;;
2848;SDS011;59355;52.416;13.412;2023-08-31T02:18:44;6.20;;;5.40;;
2848;SDS011;59355;52.416;13.412;2023-08-31T02:21:09;4.10;;;3.70;;
2848;SDS011;59355;52.416;13.412;2023-08-31T02:23:35;3.63;;;3.33;;
2848;SDS011;59355;52.416;13.412;2023-08-31T02:26:00;3.93;;;3.53;;
2848;SDS011;59355;52.416;13.412;2023-08-31T02:28:25;3.50;;;3.20;;
2848;SDS011;59355;52.416;13.412;2023-08-31T02:31:01;4.07;;;3.67;;
2848;SDS011;59355;52.416;13.412;2023-08-31T02:33:27;4.00;;;3.60;;
2848;SDS011;59355;52.416;13.412;2023-08-31T02:35:53;3.83;;;3.00;;
2848;SDS011;59355;52.416;13.412;2023-08-31T02:38:19;3.80;;;3.40;;
2848;SDS011;59355;52.416;13.412;2023-08-31T02:40:45;4.43;;;3.23;;
2848;SDS011;59355;52.416;13.412;2023-08-31T02:43:11;5.00;;;3.40;;
2848;SDS011;59355;52.416;13.412;2023-08-31T02:45:37;4.53;;;3.53;;
2848;SDS011;59355;52.416;13.412;2023-08-31T02:48:02;4.23;;;3.60;;
2848;SDS011;59355;52.416;13.412;2023-08-31T02:50:28;4.57;;;3.87;;
2848;SDS011;59355;52.416;13.412;2023-08-31T02:52:54;3.70;;;3.30;;
2848;SDS011;59355;52.416;13.412;2023-08-31T02:55:19;4.00;;;3.57;;
2848;SDS011;59355;52.416;13.412;2023-08-31T02:57:46;5.07;;;4.10;;
2848;SDS011;59355;52.416;13.412;2023-08-31T03:00:11;4.73;;;3.97;;
2848;SDS011;59355;52.416;13.412;2023-08-31T03:02:38;4.40;;;3.73;;
2848;SDS011;59355;52.416;13.412;2023-08-31T03:05:03;5.00;;;4.23;;
2848;SDS011;59355;52.416;13.412;2023-08-31T03:07:29;4.60;;;3.77;;
2848;SDS011;59355;52.416;13.412;2023-08-31T03:09:54;6.30;;;4.33;;
2848;SDS011;59355;52.416;13.412;2023-08-31T03:12:19;4.63;;;4.03;;
2848;SDS011;59355;52.416;13.412;2023-08-31T03:14:45;7.60;;;4.40;;
2848;SDS011;59355;52.416;13.412;2023-08-31T03:17:10;4.17;;;3.77;;
2848;SDS011;59355;52.416;13.412;2023-08-31T03:19:35;4.20;;;3.80;;
2848;SDS011;59355;52.416;13.412;2023-08-31T03:22:01;5.67;;;3.80;;
2848;SDS011;59355;52.416;13.412;2023-08-31T03:24:26;4.00;;;3.60;;
2848;SDS011;59355;52.416;13.412;2023-08-31T03:26:51;4.07;;;3.67;;
2848;SDS011;59355;52.416;13.412;2023-08-31T03:29:17;3.80;;;3.50;;
2848;SDS011;59355;52.416;13.412;2023-08-31T03:31:42;4.27;;;3.87;;
2848;SDS011;59355;52.416;13.412;2023-08-31T03:34:07;3.90;;;3.50;;
2848;SDS011;59355;52.416;13.412;2023-08-31T03:36:33;6.03;;;4.57;;
2848;SDS011;59355;52.416;13.412;2023-08-31T03:38:58;3.87;;;3.57;;
2848;SDS011;59355;52.416;13.412;2023-08-31T03:41:23;4.57;;;4.17;;
2848;SDS011;59355;52.416;13.412;2023-08-31T03:43:49;4.00;;;3.60;;
2848;SDS011;59355;52.416;13.412;2023-08-31T03:46:14;5.23;;;4.73;;
2848;SDS011;59355;52.416;13.412;2023-08-31T03:48:40;4.57;;;4.13;;
2848;SDS011;59355;52.416;13.412;2023-08-31T03:51:05;4.63;;;4.00;;
2848;SDS011;59355;52.416;13.412;2023-08-31T03:53:30;5.40;;;4.90;;
2848;SDS011;59355;52.416;13.412;2023-08-31T03:55:56;5.03;;;4.53;;
2848;SDS011;59355;52.416;13.412;2023-08-31T03:58:21;4.73;;;4.33;;
2848;SDS011;59355;52.416;13.412;2023-08-31T04:00:49;5.57;;;4.13;;
2848;SDS011;59355;52.416;13.412;2023-08-31T04:03:15;5.50;;;5.00;;
2848;SDS011;59355;52.416;13.412;2023-08-31T04:05:40;5.97;;;4.90;;
2848;SDS011;59355;52.416;13.412;2023-08-31T04:08:06;5.27;;;4.60;;
2848;SDS011;59355;52.416;13.412;2023-08-31T04:10:31;4.67;;;4.23;;
2848;SDS011;59355;52.416;13.412;2023-08-31T04:12:57;5.37;;;4.87;;
2848;SDS011;59355;52.416;13.412;2023-08-31T04:15:22;5.97;;;5.47;;
2848;SDS011;59355;52.416;13.412;2023-08-31T04:17:48;5.10;;;4.57;;
2848;SDS011;59355;52.416;13.412;2023-08-31T04:20:14;6.00;;;5.40;;
2848;SDS011;59355;52.416;13.412;2023-08-31T04:22:40;6.03;;;5.37;;
2848;SDS011;59355;52.416;13.412;2023-08-31T04:25:05;5.23;;;4.77;;
2848;SDS011;59355;52.416;13.412;2023-08-31T04:27:31;4.87;;;4.37;;
2848;SDS011;59355;52.416;13.412;2023-08-31T04:29:57;6.47;;;5.80;;
2848;SDS011;59355;52.416;13.412;2023-08-31T04:32:23;7.00;;;6.00;;
2848;SDS011;59355;52.416;13.412;2023-08-31T04:34:50;6.60;;;5.70;;
2848;SDS011;59355;52.416;13.412;2023-08-31T04:37:15;5.53;;;5.03;;
2848;SDS011;59355;52.416;13.412;2023-08-31T04:39:41;9.13;;;6.77;;
2848;SDS011;59355;52.416;13.412;2023-08-31T04:42:06;6.10;;;5.20;;
2848;SDS011;59355;52.416;13.412;2023-08-31T04:44:31;6.13;;;5.63;;
2848;SDS011;59355;52.416;13.412;2023-08-31T04:46:57;7.50;;;6.80;;
2848;SDS011;59355;52.416;13.412;2023-08-31T04:49:22;7.43;;;6.20;;
2848;SDS011;59355;52.416;13.412;2023-08-31T04:51:48;7.63;;;6.03;;
2848;SDS011;59355;52.416;13.412;2023-08-31T04:54:13;6.53;;;5.93;;
2848;SDS011;59355;52.416;13.412;2023-08-31T04:56:38;6.60;;;5.97;;
2848;SDS011;59355;52.416;13.412;2023-08-31T04:59:04;6.57;;;5.97;;
2848;SDS011;59355;52.416;13.412;2023-08-31T05:01:29;9.20;;;7.27;;
2848;SDS011;59355;52.416;13.412;2023-08-31T05:03:54;8.97;;;7.20;;
2848;SDS011;59355;52.416;13.412;2023-08-31T05:06:20;9.27;;;6.97;;
2848;SDS011;59355;52.416;13.412;2023-08-31T05:08:46;7.40;;;6.70;;
2848;SDS011;59355;52.416;13.412;2023-08-31T05:11:12;8.93;;;8.00;;
2848;SDS011;59355;52.416;13.412;2023-08-31T05:13:38;8.40;;;7.47;;
2848;SDS011;59355;52.416;13.412;2023-08-31T05:16:03;8.33;;;7.57;;
2848;SDS011;59355;52.416;13.412;2023-08-31T05:18:29;7.80;;;7.00;;
2848;SDS011;59355;52.416;13.412;2023-08-31T05:20:54;9.23;;;7.87;;
2848;SDS011;59355;52.416;13.412;2023-08-31T05:23:19;9.53;;;7.90;;
2848;SDS011;59355;52.416;13.412;2023-08-31T05:25:45;8.47;;;7.33;;
2848;SDS011;59355;52.416;13.412;2023-08-31T05:28:10;9.47;;;8.53;;
2848;SDS011;59355;52.416;13.412;2023-08-31T05:30:35;9.80;;;8.80;;
2848;SDS011;59355;52.416;13.412;2023-08-31T05:33:01;10.73;;;9.00;;
2848;SDS011;59355;52.416;13.412;2023-08-31T05:35:26;9.80;;;8.40;;
2848;SDS011;59355;52.416;13.412;2023-08-31T05:37:52;8.33;;;7.40;;
2848;SDS011;59355;52.416;13.412;2023-08-31T05:40:17;9.50;;;7.33;;
2848;SDS011;59355;52.416;13.412;2023-08-31T05:42:43;8.23;;;7.40;;
2848;SDS011;59355;52.416;13.412;2023-08-31T05:45:08;8.43;;;7.53;;
2848;SDS011;59355;52.416;13.412;2023-08-31T05:47:34;8.30;;;7.43;;
2848;SDS011;59355;52.416;13.412;2023-08-31T05:50:00;8.63;;;7.83;;
2848;SDS011;59355;52.416;13.412;2023-08-31T05:52:26;7.97;;;7.17;;
2848;SDS011;59355;52.416;13.412;2023-08-31T05:54:51;9.27;;;8.37;;
2848;SDS011;59355;52.416;13.412;2023-08-31T05:57:20;8.70;;;7.80;;
2848;SDS011;59355;52.416;13.412;2023-08-31T05:59:46;8.87;;;8.03;;
2848;SDS011;59355;52.416;13.412;2023-08-31T06:02:12;8.37;;;7.17;;
2848;SDS011;59355;52.416;13.412;2023-08-31T06:04:37;10.60;;;7.87;;
2848;SDS011;59355;52.416;13.412;2023-08-31T06:07:03;8.90;;;8.00;;
2848;SDS011;59355;52.416;13.412;2023-08-31T06:09:28;9.20;;;8.30;;
2848;SDS011;59355;52.416;13.412;2023-08-31T06:11:53;8.53;;;7.63;;
2848;SDS011;59355;52.416;13.412;2023-08-31T06:14:19;8.57;;;7.77;;
2848;SDS011;59355;52.416;13.412;2023-08-31T06:16:44;9.83;;;7.57;;
2848;SDS011;59355;52.416;13.412;2023-08-31T06:19:09;8.93;;;8.03;;
2848;SDS011;59355;52.416;13.412;2023-08-31T06:21:35;8.33;;;7.50;;
2848;SDS011;59355;52.416;13.412;2023-08-31T06:24:00;8.50;;;7.63;;
2848;SDS011;59355;52.416;13.412;2023-08-31T06:26:25;10.03;;;8.57;;
2848;SDS011;59355;52.416;13.412;2023-08-31T06:28:51;12.17;;;9.07;;
2848;SDS011;59355;52.416;13.412;2023-08-31T06:31:16;8.70;;;7.90;;
2848;SDS011;59355;52.416;13.412;2023-08-31T06:33:41;9.13;;;8.23;;
2848;SDS011;59355;52.416;13.412;2023-08-31T06:36:07;10.30;;;8.50;;
2848;SDS011;59355;52.416;13.412;2023-08-31T06:38:32;9.73;;;8.70;;
2848;SDS011;59355;52.416;13.412;2023-08-31T06:40:57;8.10;;;7.30;;
2848;SDS011;59355;52.416;13.412;2023-08-31T06:43:24;8.77;;;7.87;;
2848;SDS011;59355;52.416;13.412;2023-08-31T06:45:51;9.43;;;8.53;;
2848;SDS011;59355;52.416;13.412;2023-08-31T06:48:17;9.30;;;8.30;;
2848;SDS011;59355;52.416;13.412;2023-08-31T06:50:42;10.53;;;8.90;;
2848;SDS011;59355;52.416;13.412;2023-08-31T06:53:08;9.20;;;8.40;;
2848;SDS011;59355;52.416;13.412;2023-08-31T06:55:33;9.30;;;8.40;;
2848;SDS011;59355;52.416;13.412;2023-08-31T06:57:58;10.27;;;9.20;;
2848;SDS011;59355;52.416;13.412;2023-08-31T07:00:24;9.90;;;8.70;;
2848;SDS011;59355;52.416;13.412;2023-08-31T07:02:49;12.87;;;8.93;;
2848;SDS011;59355;52.416;13.412;2023-08-31T07:05:14;11.40;;;10.30;;
2848;SDS011;59355;52.416;13.412;2023-08-31T07:07:40;12.17;;;10.97;;
2848;SDS011;59355;52.416;13.412;2023-08-31T07:10:05;11.17;;;9.50;;
2848;SDS011;59355;52.416;13.412;2023-08-31T07:12:32;16.80;;;10.80;;
2848;SDS011;59355;52.416;13.412;2023-08-31T07:14:57;12.37;;;9.43;;
2848;SDS011;59355;52.416;13.412;2023-08-31T07:17:22;11.90;;;10.80;;
2848;SDS011;59355;52.416;13.412;2023-08-31T07:19:47;11.70;;;10.50;;
2848;SDS011;59355;52.416;13.412;2023-08-31T07:22:13;10.40;;;9.37;;
2848;SDS011;59355;52.416;13.412;2023-08-31T07:24:38;11.10;;;10.00;;
2848;SDS011;59355;52.416;13.412;2023-08-31T07:27:03;10.70;;;8.97;;
2848;SDS011;59355;52.416;13.412;2023-08-31T07:29:29;10.90;;;9.47;;
2848;SDS011;59355;52.416;13.412;2023-08-31T07:31:55;10.57;;;9.07;;
2848;SDS011;59355;52.416;13.412;2023-08-31T07:34:21;11.80;;;9.10;;
2848;SDS011;59355;52.416;13.412;2023-08-31T07:36:46;9.07;;;8.20;;
2848;SDS011;59355;52.416;13.412;2023-08-31T07:39:12;9.17;;;8.07;;
2848;SDS011;59355;52.416;13.412;2023-08-31T07:41:37;10.20;;;9.00;;
2848;SDS011;59355;52.416;13.412;2023-08-31T07:44:02;8.93;;;8.03;;
2848;SDS011;59355;52.416;13.412;2023-08-31T07:46:28;12.30;;;8.80;;
2848;SDS011;59355;52.416;13.412;2023-08-31T07:48:53;9.63;;;8.63;;
2848;SDS011;59355;52.416;13.412;2023-08-31T07:51:18;9.13;;;8.33;;
2848;SDS011;59355;52.416;13.412;2023-08-31T07:53:48;10.47;;;9.40;;
2848;SDS011;59355;52.416;13.412;2023-08-31T07:56:13;12.90;;;9.87;;
2848;SDS011;59355;52.416;13.412;2023-08-31T07:58:38;10.60;;;9.57;;
2848;SDS011;59355;52.416;13.412;2023-08-31T08:01:04;10.53;;;9.63;;
2848;SDS011;59355;52.416;13.412;2023-08-31T08:03:30;9.63;;;8.83;;
2848;SDS011;59355;52.416;13.412;2023-08-31T08:05:55;10.27;;;9.37;;
2848;SDS011;59355;52.416;13.412;2023-08-31T08:08:21;11.40;;;10.30;;
2848;SDS011;59355;52.416;13.412;2023-08-31T08:10:46;10.90;;;9.90;;
2848;SDS011;59355;52.416;13.412;2023-08-31T08:13:11;10.30;;;8.80;;
2848;SDS011;59355;52.416;13.412;2023-08-31T08:15:37;11.40;;;9.43;;
2848;SDS011;59355;52.416;13.412;2023-08-31T08:18:02;8.87;;;8.03;;
2848;SDS011;59355;52.416;13.412;2023-08-31T08:20:28;8.80;;;7.60;;
2848;SDS011;59355;52.416;13.412;2023-08-31T08:22:53;10.40;;;7.90;;
2848;SDS011;59355;52.416;13.412;2023-08-31T08:25:20;9.67;;;6.33;;
2848;SDS011;59355;52.416;13.412;2023-08-31T08:27:45;6.90;;;6.20;;
2848;SDS011;59355;52.416;13.412;2023-08-31T08:30:11;7.40;;;6.40;;
2848;SDS011;59355;52.416;13.412;2023-08-31T08:32:36;9.10;;;6.40;;
2848;SDS011;59355;52.416;13.412;2023-08-31T08:35:02;7.13;;;6.37;;
2848;SDS011;59355;52.416;13.412;2023-08-31T08:37:27;6.93;;;6.33;;
2848;SDS011;59355;52.416;13.412;2023-08-31T08:39:54;6.57;;;5.77;;
2848;SDS011;59355;52.416;13.412;2023-08-31T08:42:19;6.13;;;5.53;;
2848;SDS011;59355;52.416;13.412;2023-08-31T08:44:49;6.20;;;4.70;;
2848;SDS011;59355;52.416;13.412;2023-08-31T08:47:15;8.00;;;4.57;;
2848;SDS011;59355;52.416;13.412;2023-08-31T08:49:41;5.67;;;4.10;;
2848;SDS011;59355;52.416;13.412;2023-08-31T08:52:06;4.37;;;3.97;;
2848;SDS011;59355;52.416;13.412;2023-08-31T08:54:32;13.03;;;4.10;;
2848;SDS011;59355;52.416;13.412;2023-08-31T08:56:57;7.87;;;4.40;;
2848;SDS011;59355;52.416;13.412;2023-08-31T08:59:23;4.37;;;3.93;;
2848;SDS011;59355;52.416;13.412;2023-08-31T09:01:49;6.93;;;4.00;;
2848;SDS011;59355;52.416;13.412;2023-08-31T09:04:14;7.27;;;4.30;;
2848;SDS011;59355;52.416;13.412;2023-08-31T09:06:40;6.50;;;4.33;;
2848;SDS011;59355;52.416;13.412;2023-08-31T09:09:07;3.43;;;3.13;;
2848;SDS011;59355;52.416;13.412;2023-08-31T09:11:33;5.57;;;3.57;;
2848;SDS011;59355;52.416;13.412;2023-08-31T09:13:58;5.93;;;4.00;;
2848;SDS011;59355;52.416;13.412;2023-08-31T09:18:50;4.00;;;3.40;;
2848;SDS011;59355;52.416;13.412;2023-08-31T09:21:15;5.00;;;3.23;;
2848;SDS011;59355;52.416;13.412;2023-08-31T09:23:40;4.60;;;3.00;;
2848;SDS011;59355;52.416;13.412;2023-08-31T09:26:06;5.10;;;3.00;;
2848;SDS011;59355;52.416;13.412;2023-08-31T09:28:31;4.57;;;3.37;;
2848;SDS011;59355;52.416;13.412;2023-08-31T09:31:04;6.67;;;3.10;;
2848;SDS011;59355;52.416;13.412;2023-08-31T09:33:31;8.80;;;2.87;;
2848;SDS011;59355;52.416;13.412;2023-08-31T09:35:57;5.47;;;3.60;;
2848;SDS011;59355;52.416;13.412;2023-08-31T09:38:24;5.30;;;3.07;;
2848;SDS011;59355;52.416;13.412;2023-08-31T09:40:50;4.27;;;2.80;;
2848;SDS011;59355;52.416;13.412;2023-08-31T09:43:22;5.50;;;3.03;;
2848;SDS011;59355;52.416;13.412;2023-08-31T09:45:48;5.40;;;2.90;;
2848;SDS011;59355;52.416;13.412;2023-08-31T09:48:15;5.77;;;3.13;;
2848;SDS011;59355;52.416;13.412;2023-08-31T09:50:40;3.73;;;2.70;;
2848;SDS011;59355;52.416;13.412;2023-08-31T09:53:08;4.90;;;3.07;;
2848;SDS011;59355;52.416;13.412;2023-08-31T09:55:35;4.63;;;3.10;;
2848;SDS011;59355;52.416;13.412;2023-08-31T09:58:01;6.17;;;2.93;;
2848;SDS011;59355;52.416;13.412;2023-08-31T10:00:27;10.23;;;2.87;;
2848;SDS011;59355;52.416;13.412;2023-08-31T10:02:59;3.60;;;2.33;;
2848;SDS011;59355;52.416;13.412;2023-08-31T10:05:26;3.50;;;2.50;;
2848;SDS011;59355;52.416;13.412;2023-08-31T10:07:51;6.43;;;2.70;;
2848;SDS011;59355;52.416;13.412;2023-08-31T10:10:17;3.07;;;2.50;;
2848;SDS011;59355;52.416;13.412;2023-08-31T10:12:44;8.20;;;2.30;;
2848;SDS011;59355;52.416;13.412;2023-08-31T10:15:10;4.90;;;2.53;;
2848;SDS011;59355;52.416;13.412;2023-08-31T10:17:36;2.93;;;2.47;;
2848;SDS011;59355;52.416;13.412;2023-08-31T10:20:01;6.23;;;2.40;;
2848;SDS011;59355;52.416;13.412;2023-08-31T10:22:27;4.60;;;2.20;;
2848;SDS011;59355;52.416;13.412;2023-08-31T10:25:00;3.60;;;1.93;;
2848;SDS011;59355;52.416;13.412;2023-08-31T10:27:26;3.83;;;2.20;;
2848;SDS011;59355;52.416;13.412;2023-08-31T10:29:52;2.70;;;2.37;;
2848;SDS011;59355;52.416;13.412;2023-08-31T10:32:17;6.67;;;2.57;;
2848;SDS011;59355;52.416;13.412;2023-08-31T10:34:43;4.50;;;2.40;;
2848;SDS011;59355;52.416;13.412;2023-08-31T10:37:21;2.50;;;1.87;;
2848;SDS011;59355;52.416;13.412;2023-08-31T10:39:47;2.83;;;2.10;;
2848;SDS011;59355;52.416;13.412;2023-08-31T10:42:12;2.57;;;1.87;;
2848;SDS011;59355;52.416;13.412;2023-08-31T10:44:39;3.60;;;2.33;;
2848;SDS011;59355;52.416;13.412;2023-08-31T10:47:07;8.20;;;2.90;;
2848;SDS011;59355;52.416;13.412;2023-08-31T10:49:32;10.03;;;3.30;;
2848;SDS011;59355;52.416;13.412;2023-08-31T10:52:14;8.93;;;3.13;;
2848;SDS011;59355;52.416;13.412;2023-08-31T10:54:42;5.67;;;3.17;;
2848;SDS011;59355;52.416;13.412;2023-08-31T10:57:07;5.73;;;3.27;;
2848;SDS011;59355;52.416;13.412;2023-08-31T10:59:45;5.53;;;2.60;;
2848;SDS011;59355;52.416;13.412;2023-08-31T11:05:17;4.23;;;2.50;;
2848;SDS011;59355;52.416;13.412;2023-08-31T11:07:49;3.60;;;2.80;;
2848;SDS011;59355;52.416;13.412;2023-08-31T11:12:46;3.57;;;2.97;;
2848;SDS011;59355;52.416;13.412;2023-08-31T11:15:13;4.90;;;3.07;;
2848;SDS011;59355;52.416;13.412;2023-08-31T11:17:40;5.47;;;3.50;;
2848;SDS011;59355;52.416;13.412;2023-08-31T11:20:06;6.50;;;3.83;;
2848;SDS011;59355;52.416;13.412;2023-08-31T11:22:34;3.73;;;3.37;;
2848;SDS011;59355;52.416;13.412;2023-08-31T11:24:59;6.20;;;4.13;;
2848;SDS011;59355;52.416;13.412;2023-08-31T11:27:25;5.27;;;3.60;;
2848;SDS011;59355;52.416;13.412;2023-08-31T11:29:50;4.67;;;3.50;;
2848;SDS011;59355;52.416;13.412;2023-08-31T11:32:15;4.00;;;3.57;;
2848;SDS011;59355;52.416;13.412;2023-08-31T11:34:41;3.83;;;3.20;;
2848;SDS011;59355;52.416;13.412;2023-08-31T11:37:09;4.40;;;3.80;;
2848;SDS011;59355;52.416;13.412;2023-08-31T11:39:37;3.80;;;3.30;;
2848;SDS011;59355;52.416;13.412;2023-08-31T11:42:03;4.17;;;3.77;;
2848;SDS011;59355;52.416;13.412;2023-08-31T11:44:28;4.40;;;3.30;;
2848;SDS011;59355;52.416;13.412;2023-08-31T11:46:53;5.07;;;3.60;;
2848;SDS011;59355;52.416;13.412;2023-08-31T11:49:19;5.13;;;3.23;;
2848;SDS011;59355;52.416;13.412;2023-08-31T11:51:45;5.70;;;3.33;;
2848;SDS011;59355;52.416;13.412;2023-08-31T11:54:11;3.47;;;3.13;;
2848;SDS011;59355;52.416;13.412;2023-08-31T11:56:40;4.10;;;3.70;;
2848;SDS011;59355;52.416;13.412;2023-08-31T11:59:10;3.60;;;3.23;;
2848;SDS011;59355;52.416;13.412;2023-08-31T12:01:37;6.03;;;3.13;;
2848;SDS011;59355;52.416;13.412;2023-08-31T12:04:13;4.03;;;3.20;;
2848;SDS011;59355;52.416;13.412;2023-08-31T12:06:40;4.77;;;3.30;;
2848;SDS011;59355;52.416;13.412;2023-08-31T12:09:07;3.70;;;3.40;;
2848;SDS011;59355;52.416;13.412;2023-08-31T12:11:35;4.00;;;2.90;;
2848;SDS011;59355;52.416;13.412;2023-08-31T12:14:01;3.37;;;3.07;;
2848;SDS011;59355;52.416;13.412;2023-08-31T12:16:32;3.30;;;2.90;;
2848;SDS011;59355;52.416;13.412;2023-08-31T12:18:58;4.90;;;3.30;;
2848;SDS011;59355;52.416;13.412;2023-08-31T12:21:24;4.43;;;3.23;;
2848;SDS011;59355;52.416;13.412;2023-08-31T12:23:49;5.90;;;3.67;;
2848;SDS011;59355;52.416;13.412;2023-08-31T12:26:14;4.87;;;2.87;;
2848;SDS011;59355;52.416;13.412;2023-08-31T12:28:40;4.37;;;2.80;;
2848;SDS011;59355;52.416;13.412;2023-08-31T12:31:06;3.40;;;3.10;;
2848;SDS011;59355;52.416;13.412;2023-08-31T12:33:31;3.73;;;3.30;;
2848;SDS011;59355;52.416;13.412;2023-08-31T12:35:56;4.60;;;3.13;;
2848;SDS011;59355;52.416;13.412;2023-08-31T12:38:21;4.60;;;3.23;;
2848;SDS011;59355;52.416;13.412;2023-08-31T12:40:47;3.33;;;2.80;;
2848;SDS011;59355;52.416;13.412;2023-08-31T12:43:12;3.27;;;2.97;;
2848;SDS011;59355;52.416;13.412;2023-08-31T12:45:37;7.97;;;2.93;;
2848;SDS011;59355;52.416;13.412;2023-08-31T12:48:03;3.13;;;2.70;;
2848;SDS011;59355;52.416;13.412;2023-08-31T12:50:29;5.03;;;2.97;;
2848;SDS011;59355;52.416;13.412;2023-08-31T12:52:55;3.47;;;2.80;;
2848;SDS011;59355;52.416;13.412;2023-08-31T12:55:20;2.80;;;2.50;;
2848;SDS011;59355;52.416;13.412;2023-08-31T12:57:45;3.30;;;3.00;;
2848;SDS011;59355;52.416;13.412;2023-08-31T13:00:11;2.63;;;2.30;;
2848;SDS011;59355;52.416;13.412;2023-08-31T13:02:37;3.50;;;2.80;;
2848;SDS011;59355;52.416;13.412;2023-08-31T13:05:03;3.80;;;2.90;;
2848;SDS011;59355;52.416;13.412;2023-08-31T13:07:30;3.27;;;2.93;;
2848;SDS011;59355;52.416;13.412;2023-08-31T13:09:55;4.50;;;2.70;;
2848;SDS011;59355;52.416;13.412;2023-08-31T13:12:20;3.10;;;2.80;;
2848;SDS011;59355;52.416;13.412;2023-08-31T13:14:46;4.80;;;2.87;;
2848;SDS011;59355;52.416;13.412;2023-08-31T13:17:11;4.17;;;2.77;;
2848;SDS011;59355;52.416;13.412;2023-08-31T13:19:36;2.30;;;2.10;;
2848;SDS011;59355;52.416;13.412;2023-08-31T13:22:02;4.00;;;2.40;;
2848;SDS011;59355;52.416;13.412;2023-08-31T13:24:27;3.70;;;2.23;;
2848;SDS011;59355;52.416;13.412;2023-08-31T13:26:53;2.80;;;1.90;;
2848;SDS011;59355;52.416;13.412;2023-08-31T13:29:18;2.90;;;2.20;;
2848;SDS011;59355;52.416;13.412;2023-08-31T13:31:43;2.93;;;2.20;;
2848;SDS011;59355;52.416;13.412;2023-08-31T13:34:09;2.60;;;2.00;;
2848;SDS011;59355;52.416;13.412;2023-08-31T13:36:36;3.07;;;1.90;;
2848;SDS011;59355;52.416;13.412;2023-08-31T13:39:01;2.30;;;2.07;;
2848;SDS011;59355;52.416;13.412;2023-08-31T13:41:28;3.13;;;2.20;;
2848;SDS011;59355;52.416;13.412;2023-08-31T13:43:53;3.43;;;2.40;;
2848;SDS011;59355;52.416;13.412;2023-08-31T13:46:18;3.10;;;2.20;;
2848;SDS011;59355;52.416;13.412;2023-08-31T13:48:44;3.20;;;2.30;;
2848;SDS011;59355;52.416;13.412;2023-08-31T13:51:09;3.10;;;2.47;;
2848;SDS011;59355;52.416;13.412;2023-08-31T13:53:34;2.57;;;2.30;;
2848;SDS011;59355;52.416;13.412;2023-08-31T13:56:00;2.90;;;2.60;;
2848;SDS011;59355;52.416;13.412;2023-08-31T13:58:25;2.90;;;2.37;;
2848;SDS011;59355;52.416;13.412;2023-08-31T14:00:50;3.73;;;2.83;;
2848;SDS011;59355;52.416;13.412;2023-08-31T14:03:16;3.70;;;3.00;;
2848;SDS011;59355;52.416;13.412;2023-08-31T14:05:42;5.53;;;3.47;;
2848;SDS011;59355;52.416;13.412;2023-08-31T14:08:07;4.17;;;3.50;;
2848;SDS011;59355;52.416;13.412;2023-08-31T14:10:33;4.90;;;3.37;;
2848;SDS011;59355;52.416;13.412;2023-08-31T14:12:58;4.00;;;3.37;;
2848;SDS011;59355;52.416;13.412;2023-08-31T14:15:24;5.57;;;4.23;;
2848;SDS011;59355;52.416;13.412;2023-08-31T14:17:52;6.57;;;4.07;;
2848;SDS011;59355;52.416;13.412;2023-08-31T14:20:21;5.83;;;4.43;;
2848;SDS011;59355;52.416;13.412;2023-08-31T14:22:47;5.20;;;3.80;;
2848;SDS011;59355;52.416;13.412;2023-08-31T14:25:12;4.73;;;4.23;;
2848;SDS011;59355;52.416;13.412;2023-08-31T14:27:38;4.43;;;4.03;;
2848;SDS011;59355;52.416;13.412;2023-08-31T14:30:04;6.17;;;4.23;;
2848;SDS011;59355;52.416;13.412;2023-08-31T14:32:31;4.17;;;3.63;;
2848;SDS011;59355;52.416;13.412;2023-08-31T14:34:56;3.50;;;3.20;;
2848;SDS011;59355;52.416;13.412;2023-08-31T14:37:21;4.53;;;3.83;;
2848;SDS011;59355;52.416;13.412;2023-08-31T14:39:47;6.50;;;2.10;;
2848;SDS011;59355;52.416;13.412;2023-08-31T14:42:12;2.73;;;2.40;;
2848;SDS011;59355;52.416;13.412;2023-08-31T14:44:37;2.50;;;2.07;;
2848;SDS011;59355;52.416;13.412;2023-08-31T14:47:03;3.23;;;2.57;;
2848;SDS011;59355;52.416;13.412;2023-08-31T14:49:28;4.50;;;2.23;;
2848;SDS011;59355;52.416;13.412;2023-08-31T14:51:53;4.93;;;2.97;;
2848;SDS011;59355;52.416;13.412;2023-08-31T14:54:19;3.87;;;2.10;;